Storia di METAR Noord Nederlandse Zweefvliegclub (NL-0036)

2 luglio 2022

Tempo Codice Tempo metereologico Temp. Vista Base nuvolosa Vento METAR/SPECI
9:25 am
V
63 °F 6¼ mi+ - 210° 210° 15 kt METAR EHMA 020725Z AUTO 21015KT 9999 FEW016 17/13 Q1020
8:55 am
V
61 °F 6¼ mi+ - Var Var 17 kt METAR EHMA 020655Z AUTO VRB17KT 9999 FEW017 16/13 Q1020
8:25 am
V
61 °F 6¼ mi+ - 200° 200° 18 kt METAR EHMA 020625Z AUTO 20018KT 180V240 9999 FEW017 16/13 Q1020
7:55 am
V
59 °F 6¼ mi+ - 200° 200° 17 kt METAR EHMA 020555Z AUTO 20017KT 9999 FEW021 15/13 Q1020
7:25 am
V
59 °F 6¼ mi+ - 200° 200° 18 kt METAR EHMA 020525Z AUTO 20018KT 9999 FEW021 15/12 Q1019
6:55 am
V
57 °F 6¼ mi+ - 200° 200° 18 kt METAR EHMA 020455Z AUTO 20018KT 9999 NCD 14/12 Q1019
6:25 am
V
59 °F 6¼ mi+ - 200° 200° 19 kt METAR EHMA 020425Z AUTO 20019KT 9999 NCD 15/12 Q1019
5:55 am
V
59 °F 6¼ mi+ - 200° 200° 19 kt METAR EHMA 020355Z AUTO 20019KT 180V240 9999 NCD 15/12 Q1019
5:25 am
V
59 °F 6¼ mi+ - 200° 200° 19 kt METAR EHMA 020325Z AUTO 20019KT 180V240 9999 NCD 15/11 Q1019
4:55 am
V
59 °F 6¼ mi+ - 210° 210° 18 kt METAR EHMA 020255Z AUTO 21018KT 180V240 9999 NCD 15/11 Q1019
4:25 am
V
59 °F 6¼ mi+ - 210° 210° 19 kt METAR EHMA 020225Z AUTO 21019KT 180V240 9999 NCD 15/11 Q1019
3:55 am
V
59 °F 6¼ mi+ - 210° 210° 16 kt METAR EHMA 020155Z AUTO 21016KT 180V250 9999 NCD 15/12 Q1019
3:25 am
V
59 °F 6¼ mi+ - 210° 210° 17 kt METAR EHMA 020125Z AUTO 21017KT 180V240 9999 NCD 15/12 Q1019
2:55 am
V
61 °F 6¼ mi+ - 200° 200° 18 kt METAR EHMA 020055Z AUTO 20018KT 9999 NCD 16/12 Q1019
2:25 am
V
61 °F 6¼ mi+ - 200° 200° 17 kt METAR EHMA 020025Z AUTO 20017KT 180V250 9999 NCD 16/12 Q1019
1:55 am
V
61 °F 6¼ mi+ - 200° 200° 17 kt METAR EHMA 012355Z AUTO 20017KT 9999 NCD 16/12 Q1019
1:25 am
V
61 °F 6¼ mi+ - 210° 210° 16 kt METAR EHMA 012325Z AUTO 21016KT 9999 NCD 16/12 Q1019
12:55 am
V
61 °F 6¼ mi+ - 210° 210° 17 kt METAR EHMA 012255Z AUTO 21017KT 180V270 9999 NSC 16/12 Q1019
12:25 am
V
63 °F 6¼ mi+ - 210° 210° 15 kt METAR EHMA 012225Z AUTO 21015KT 110V250 9999 NSC 17/12 Q1019

1 luglio 2022

Tempo Codice Tempo metereologico Temp. Vista Base nuvolosa Vento METAR/SPECI
11:55 pm
V
63 °F 6¼ mi+ - 200° 200° 12 kt METAR EHMA 012155Z AUTO 20012KT 9999 FEW025 17/12 Q1019
11:25 pm
V
63 °F 6¼ mi+ - 210° 210° 13 kt METAR EHMA 012125Z AUTO 21013KT 9999 SCT023 SCT028 17/13 Q1019
10:55 pm
V
63 °F 6¼ mi+ - 230° 230° 13 kt METAR EHMA 012055Z AUTO 23013KT 9999 FEW023 SCT026 17/12 Q1019
10:25 pm
V
63 °F 6¼ mi+ - 230° 230° 14 kt METAR EHMA 012025Z AUTO 23014KT 9999 FEW023 17/12 Q1019
9:55 pm
V
64 °F 6¼ mi+ - 240° 240° 13 kt METAR EHMA 011955Z AUTO 24013KT 9999 FEW025 18/12 Q1018
9:25 pm
V
64 °F 6¼ mi+ - 240° 240° 15 kt METAR EHMA 011925Z AUTO 24015KT 9999 FEW028 18/12 Q1018
8:55 pm
V
64 °F 6¼ mi+ - 240° 240° 17 kt METAR EHMA 011855Z AUTO 24017KT 9999 FEW025 18/12 Q1018
8:25 pm
V
64 °F 6¼ mi+ - 240° 240° 17 kt METAR EHMA 011825Z AUTO 24017KT 9999 FEW024 18/12 Q1018
7:55 pm
V
64 °F 6¼ mi+ - 240° 240° 17 kt METAR EHMA 011755Z AUTO 24017KT 9999 FEW023 SCT030 18/12 Q1018
7:25 pm
V
64 °F 6¼ mi+ - 230° 230° 18 kt METAR EHMA 011725Z AUTO 23018KT 9999 FEW023 SCT029 18/12 Q1018
6:55 pm
V
64 °F 6¼ mi+ - 240° 240° 19 kt METAR EHMA 011655Z AUTO 24019KT 9999 FEW024 SCT038 18/12 Q1017
6:25 pm
V
64 °F 6¼ mi+ - 240° 240° 19 kt METAR EHMA 011625Z AUTO 24019KT 9999 FEW025 SCT032 18/12 Q1017
5:55 pm
V
64 °F 6¼ mi+ - 240° 240° 19 kt METAR EHMA 011555Z AUTO 24019KT 9999 FEW027 18/12 Q1017
5:25 pm
V
64 °F 6¼ mi+ - 240° 240° 18 kt METAR EHMA 011525Z AUTO 24018KT 9999 FEW028 18/11 Q1017
4:55 pm
V
64 °F 6¼ mi+ - 240° 240° 16 kt METAR EHMA 011455Z AUTO 24016KT 9999 FEW028 18/11 Q1017
4:25 pm
V
64 °F 6¼ mi+ - 240° 240° 18 kt METAR EHMA 011425Z AUTO 24018KT 9999 FEW029 18/10 Q1017
3:55 pm
V
64 °F 6¼ mi+ - 240° 240° 15 kt METAR EHMA 011355Z AUTO 24015KT 9999 FEW029 18/11 Q1016
3:25 pm
V
63 °F 6¼ mi+ - 240° 240° 17 kt METAR EHMA 011325Z AUTO 24017KT 9999 FEW028 17/10 Q1016
2:55 pm
V
63 °F 6¼ mi+ - 240° 240° 17 kt METAR EHMA 011255Z AUTO 24017KT 9999 FEW022 17/11 Q1016
2:25 pm
V
63 °F 6¼ mi+ - 250° 250° 14 kt METAR EHMA 011225Z AUTO 25014KT 9999 FEW022 17/12 Q1016
12:55 pm
V
63 °F 6¼ mi+ - 250° 250° 14 kt METAR EHMA 011055Z AUTO 25014KT 9999 FEW024 17/12 Q1016
12:25 pm
V
63 °F 6¼ mi+ - 250° 250° 16 kt METAR EHMA 011025Z AUTO 25016KT 9999 FEW024 SCT029 17/11 Q1015
11:55 am
V
63 °F 6¼ mi+ - 240° 240° 15 kt METAR EHMA 010955Z AUTO 24015KT 9999 FEW020 SCT031 17/10 Q1015
11:25 am
V
63 °F 6¼ mi+ 4.300 ft 240° 240° 14 kt METAR EHMA 010925Z AUTO 24014KT 9999 FEW020 SCT026 BKN043 17/12 Q1015
10:55 am
V
63 °F 6¼ mi+ - 230° 230° 16 kt METAR EHMA 010855Z AUTO 23016KT 9999 FEW024 17/11 Q1015
10:25 am
V
63 °F 6¼ mi+ 3.100 ft 240° 240° 14 kt METAR EHMA 010825Z AUTO 24014KT 9999 FEW015 SCT023 BKN031 17/12 Q1014
9:55 am
M
61 °F 6¼ mi+ 2.100 ft Var Var 15 kt METAR EHMA 010755Z AUTO VRB15KT 9999 FEW012 SCT018 BKN021 16/14 Q1014
9:25 am
M
61 °F 6¼ mi+ 2.000 ft Var Var 12 kt METAR EHMA 010725Z AUTO VRB12KT 9999 FEW012 SCT016 BKN020 16/13 Q1014
8:55 am
M
61 °F 6¼ mi+ 1.500 ft Var Var 7 kt METAR EHMA 010655Z AUTO VRB07KT 9999 BKN015 BKN018 BKN023 16/13 Q1014
8:25 am
M
61 °F 6¼ mi+ 1.500 ft 240° 240° 11 kt METAR EHMA 010625Z AUTO 24011KT 9999 BKN015 BKN020 BKN024 16/13 Q1014
7:55 am
V
61 °F 6¼ mi+ - 250° 250° 12 kt METAR EHMA 010555Z AUTO 25012KT 9999 FEW016 16/12 Q1014
7:25 am
V
61 °F 6¼ mi+ - 250° 250° 13 kt METAR EHMA 010525Z AUTO 25013KT 9999 FEW018 16/12 Q1013
6:55 am
V
61 °F 6¼ mi+ - 250° 250° 14 kt METAR EHMA 010455Z AUTO 25014KT 9999 FEW019 SCT035 16/12 Q1013
6:25 am
V
61 °F 6¼ mi+ 3.600 ft 260° 260° 14 kt METAR EHMA 010425Z AUTO 26014KT 9999 FEW017 SCT021 BKN036 16/13 Q1013
5:55 am
V
61 °F 6¼ mi+ 3.700 ft 260° 260° 13 kt METAR EHMA 010355Z AUTO 26013KT 9999 FEW020 SCT032 BKN037 16/13 Q1013
5:25 am
V
61 °F 6¼ mi+ - 260° 260° 14 kt METAR EHMA 010325Z AUTO 26014KT 9999 FEW030 SCT039 16/13 Q1013
4:55 am
V
61 °F 6¼ mi+ 3.400 ft 250° 250° 15 kt METAR EHMA 010255Z AUTO 25015KT 9999 FEW012 SCT021 BKN034 16/13 Q1013
4:25 am
M
61 °F 6¼ mi+ 2.300 ft 260° 260° 14 kt METAR EHMA 010225Z AUTO 26014KT 9999 FEW010 SCT016 BKN023 16/13 Q1012
3:55 am
V
61 °F 6¼ mi+ - 280° 280° 14 kt METAR EHMA 010155Z AUTO 28014KT 9999 FEW009 SCT027 16/14 Q1012
3:25 am
M
59 °F 6¼ mi+ 1.600 ft 270° 270° 17 kt METAR EHMA 010125Z AUTO 27017KT 9999 FEW006 SCT013 BKN016 15/14 Q1012
2:55 am
M
59 °F 6¼ mi+ 1.600 ft 260° 260° 16 kt METAR EHMA 010055Z AUTO 26016KT 9999 FEW005 SCT010 BKN016 15/14 Q1013
2:25 am
M
59 °F 6¼ mi+ 1.300 ft 280° 280° 15 kt METAR EHMA 010025Z AUTO 28015KT 9999 -RA FEW000 SCT007 BKN013 FEW015CB 15/14 Q1012
1:55 am
M
59 °F 4⅜ mi 1.000 ft 280° 280° 15 kt METAR EHMA 302355Z AUTO 28015KT 7000 -SHRA FEW000 SCT009 BKN010 BKN015CB 15/14 Q1012 REGRRA
1:25 am
M
61 °F 6¼ mi+ 1.500 ft 290° 290° 16 kt METAR EHMA 302325Z AUTO 29016KT 9999 FEW007 SCT009 BKN015CB 16/14 Q1013
12:55 am
M
59 °F 6¼ mi+ 2.000 ft 300° 300° 24 kt METAR EHMA 302255Z AUTO 30024KT 9999 FEW002 SCT010 BKN020 15/14 Q1011
12:25 am
M
59 °F 6¼ mi+ 1.200 ft 300° 300° 30 kt METAR EHMA 302225Z AUTO 30030KT 9999 -DZ FEW002 SCT008 BKN012 FEW015CB 15/14 Q1010 RERA REDZ

30 giugno 2022

Tempo Codice Tempo metereologico Temp. Vista Base nuvolosa Vento METAR/SPECI
11:55 pm
I
57 °F 2½ mi 1.500 ft 300° 300° 25 kt METAR EHMA 302155Z AUTO 30025KT 4100 TSRA FEW000 SCT007 BKN015CB 14/14 Q1011
11:25 pm
I
57 °F 1⅝ mi 1.500 ft 300° 300° 29 kt METAR EHMA 302125Z AUTO 30029KT 2600 TSRA FEW000 SCT005 BKN015CB 14/14 Q1010
10:55 pm
I
57 °F 1⅛ mi 1.400 ft 290° 290° 27 kt METAR EHMA 302055Z AUTO 29027KT 1900 +TSRA FEW000 SCT005 BKN014 BKN015CB 14/14 Q1011
10:25 pm
I
61 °F 1⅞ mi 1.300 ft 290° 290° 21 - 31 kt METAR EHMA 302025Z AUTO 29021G31KT 3000 +TSRA FEW000 SCT010 BKN013 BKN015CB 16/15 Q1010 REDZ
9:55 pm
V
63 °F 6¼ mi+ 4.500 ft 290° 290° 26 kt METAR EHMA 301955Z AUTO 29026KT 9999 -TSRA FEW008 SCT010 FEW015CB BKN045 17/15 Q1011
9:25 pm
V
63 °F 6¼ mi+ - 300° 300° 27 kt METAR EHMA 301925Z AUTO 30027KT 9999 FEW006 SCT010 17/15 Q1010
8:55 pm
V
63 °F 6¼ mi+ 4.300 ft 300° 300° 25 kt METAR EHMA 301855Z AUTO 30025KT 9999 FEW006 BKN043 17/16 Q1010
8:25 pm
V
64 °F 6¼ mi+ - 300° 300° 21 kt METAR EHMA 301825Z AUTO 30021KT 9999 FEW006 SCT043 18/16 Q1010
7:55 pm
V
64 °F 6¼ mi+ - 320° 320° 18 kt METAR EHMA 301755Z AUTO 32018KT 9999 FEW043 18/16 Q1010
7:25 pm
V
64 °F 6¼ mi+ - 320° 320° 16 kt METAR EHMA 301725Z AUTO 32016KT 9999 NSC 18/16 Q1010
6:55 pm
V
64 °F 6¼ mi+ - 320° 320° 15 kt METAR EHMA 301655Z AUTO 32015KT 9999 NSC 18/16 Q1010
6:25 pm
V
64 °F 6¼ mi+ - 300° 300° 15 kt METAR EHMA 301625Z AUTO 30015KT 9999 NSC 18/16 Q1011
5:55 pm
V
64 °F 6¼ mi+ - 330° 330° 11 kt METAR EHMA 301555Z AUTO 33011KT 9999 NSC 18/16 Q1011
5:25 pm
V
64 °F 6¼ mi+ - 330° 330° 12 kt METAR EHMA 301525Z AUTO 33012KT 9999 NSC 18/16 Q1011
4:55 pm
V
64 °F 6¼ mi+ - 300° 300° 14 kt METAR EHMA 301455Z AUTO 30014KT 9999 NSC 18/16 Q1011
4:25 pm
V
64 °F 6¼ mi+ - 290° 290° 12 kt METAR EHMA 301425Z AUTO 29012KT 9999 NSC 18/16 Q1011
3:55 pm
V
64 °F 6¼ mi+ - 290° 290° 11 kt METAR EHMA 301355Z AUTO 29011KT 9999 NSC 18/16 Q1012
3:25 pm
V
64 °F 6¼ mi+ - 290° 290° 11 kt METAR EHMA 301325Z AUTO 29011KT 9999 NSC 18/17 Q1012
2:55 pm
V
64 °F 6¼ mi+ - 290° 290° 13 kt METAR EHMA 301255Z AUTO 29013KT 9999 NSC 18/16 Q1012
2:25 pm
V
64 °F 6¼ mi+ - 300° 300° 13 kt METAR EHMA 301225Z AUTO 30013KT 9999 NSC 18/16 Q1012
1:55 pm
M
66 °F 4⅜ mi - 290° 290° 12 kt METAR EHMA 301155Z AUTO 29012KT 7000 NSC 19/17 Q1012
1:25 pm
V
68 °F 5 mi - 290° 290° 9 kt METAR EHMA 301125Z AUTO 29009KT 8000 NSC 20/17 Q1012
12:55 pm
V
68 °F 6¼ mi+ - 280° 280° 8 kt METAR EHMA 301055Z AUTO 28008KT 9999 FEW026 20/17 Q1012
12:25 pm
V
72 °F 6¼ mi+ - 260° 260° 8 kt METAR EHMA 301025Z AUTO 26008KT 9999 FEW026 22/17 Q1012
11:55 am
V
73 °F 6¼ mi+ - 130° 130° 6 kt METAR EHMA 300955Z AUTO 13006KT 9999 NSC 23/17 Q1011
11:25 am
V
72 °F 6¼ mi+ - 140° 140° 11 kt METAR EHMA 300925Z AUTO 14011KT 9999 NSC 22/17 Q1011
10:55 am
V
72 °F 6¼ mi+ - 130° 130° 14 kt METAR EHMA 300855Z AUTO 13014KT 9999 NSC 22/17 Q1011
10:25 am
V
70 °F 6¼ mi+ - 120° 120° 16 kt METAR EHMA 300825Z AUTO 12016KT 9999 NSC 21/16 Q1011
9:55 am
V
70 °F 6¼ mi+ - 130° 130° 16 kt METAR EHMA 300755Z AUTO 13016KT 9999 NCD 21/16 Q1011
9:25 am
V
68 °F 6¼ mi+ - 120° 120° 16 kt METAR EHMA 300725Z AUTO 12016KT 9999 NCD 20/16 Q1011
Dati più vecchi

Scarica la nostra applicazione

Facile accesso a tutte le previsioni dell'aviazione sul tuo cellulare e tablet.
Con molte caratteristiche non disponibili sul sito web, come il supporto offline e una lista personale di aeroporti.

Noi e le terze parti seguiamo il tuo comportamento in internet sul nostro sito web con i cookie. Se continui, riteniamo che tu sia d'accordo con la nostra politica sui cookie. Per saperne di più